sensor_id;sensor_type;location;lat;lon;timestamp;pressure;altitude;pressure_sealevel;temperature;humidity
40920;BME280;26652;50.280;19.026;2023-10-31T00:00:51;151657.03;;;15.67;87.23
40920;BME280;26652;50.280;19.026;2023-10-31T00:03:03;151686.72;;;15.79;86.74
40920;BME280;26652;50.280;19.026;2023-10-31T00:05:05;151673.09;;;15.74;86.72
40920;BME280;26652;50.280;19.026;2023-10-31T00:07:05;151675.59;;;15.75;86.11
40920;BME280;26652;50.280;19.026;2023-10-31T00:09:06;151671.88;;;15.73;86.33
40920;BME280;26652;50.280;19.026;2023-10-31T00:11:07;151663.22;;;15.69;86.62
40920;BME280;26652;50.280;19.026;2023-10-31T00:13:07;151644.66;;;15.62;86.57
40920;BME280;26652;50.280;19.026;2023-10-31T00:15:08;151661.97;;;15.69;86.36
40920;BME280;26652;50.280;19.026;2023-10-31T00:17:09;151634.81;;;15.58;86.81
40920;BME280;26652;50.280;19.026;2023-10-31T00:19:09;151638.53;;;15.59;86.76
40920;BME280;26652;50.280;19.026;2023-10-31T00:21:10;151638.53;;;15.59;87.01
40920;BME280;26652;50.280;19.026;2023-10-31T00:23:11;151648.38;;;15.63;87.07
40920;BME280;26652;50.280;19.026;2023-10-31T00:25:11;151647.13;;;15.63;86.78
40920;BME280;26652;50.280;19.026;2023-10-31T00:27:12;151686.72;;;15.79;86.18
40920;BME280;26652;50.280;19.026;2023-10-31T00:29:13;151658.25;;;15.67;85.69
40920;BME280;26652;50.280;19.026;2023-10-31T00:31:14;151640.94;;;15.60;85.53
40920;BME280;26652;50.280;19.026;2023-10-31T00:33:15;151639.75;;;15.60;85.71
40920;BME280;26652;50.280;19.026;2023-10-31T00:35:15;151638.53;;;15.59;85.12
40920;BME280;26652;50.280;19.026;2023-10-31T00:37:18;151666.91;;;15.71;84.30
40920;BME280;26652;50.280;19.026;2023-10-31T00:39:19;151669.41;;;15.72;84.12
40920;BME280;26652;50.280;19.026;2023-10-31T00:41:20;151675.59;;;15.75;84.05
40920;BME280;26652;50.280;19.026;2023-10-31T00:43:20;151733.75;;;15.98;83.75
40920;BME280;26652;50.280;19.026;2023-10-31T00:45:21;151711.47;;;15.89;83.01
40920;BME280;26652;50.280;19.026;2023-10-31T00:47:21;151692.91;;;15.82;82.73
40920;BME280;26652;50.280;19.026;2023-10-31T00:49:22;151697.84;;;15.84;82.85
40920;BME280;26652;50.280;19.026;2023-10-31T00:51:23;151686.72;;;15.79;82.62
40920;BME280;26652;50.280;19.026;2023-10-31T00:53:23;151732.50;;;15.98;81.98
40920;BME280;26652;50.280;19.026;2023-10-31T00:55:24;151748.59;;;16.05;81.51
40920;BME280;26652;50.280;19.026;2023-10-31T00:57:25;151774.56;;;16.15;80.91
40920;BME280;26652;50.280;19.026;2023-10-31T00:59:26;151801.81;;;16.26;80.88
40920;BME280;26652;50.280;19.026;2023-10-31T01:01:26;151811.69;;;16.30;80.17
40920;BME280;26652;50.280;19.026;2023-10-31T01:03:27;151829.03;;;16.38;80.68
40920;BME280;26652;50.280;19.026;2023-10-31T01:05:29;151830.28;;;16.38;79.84
40920;BME280;26652;50.280;19.026;2023-10-31T01:07:29;151840.16;;;16.42;79.97
40920;BME280;26652;50.280;19.026;2023-10-31T01:09:30;151841.41;;;16.43;80.13
40920;BME280;26652;50.280;19.026;2023-10-31T01:11:31;151780.75;;;16.18;79.90
40920;BME280;26652;50.280;19.026;2023-10-31T01:13:31;151788.19;;;16.21;79.70
40920;BME280;26652;50.280;19.026;2023-10-31T01:15:32;151784.47;;;16.19;78.68
40920;BME280;26652;50.280;19.026;2023-10-31T01:17:33;151812.94;;;16.31;78.24
40920;BME280;26652;50.280;19.026;2023-10-31T01:19:33;151800.56;;;16.26;77.74
40920;BME280;26652;50.280;19.026;2023-10-31T01:21:34;151798.09;;;16.25;78.05
40920;BME280;26652;50.280;19.026;2023-10-31T01:23:35;151821.59;;;16.34;77.32
40920;BME280;26652;50.280;19.026;2023-10-31T01:25:35;151806.75;;;16.28;76.97
40920;BME280;26652;50.280;19.026;2023-10-31T01:27:36;151835.22;;;16.40;76.11
40920;BME280;26652;50.280;19.026;2023-10-31T01:29:37;151822.84;;;16.35;75.37
40920;BME280;26652;50.280;19.026;2023-10-31T01:31:41;151833.97;;;16.40;76.08
40920;BME280;26652;50.280;19.026;2023-10-31T01:33:41;151812.94;;;16.31;75.34
40920;BME280;26652;50.280;19.026;2023-10-31T01:35:42;151827.78;;;16.37;75.52
40920;BME280;26652;50.280;19.026;2023-10-31T01:37:43;151827.78;;;16.37;76.49
40920;BME280;26652;50.280;19.026;2023-10-31T01:39:43;151815.41;;;16.32;75.58
40920;BME280;26652;50.280;19.026;2023-10-31T01:41:44;151815.41;;;16.32;75.22
40920;BME280;26652;50.280;19.026;2023-10-31T01:43:45;151811.69;;;16.30;75.42
40920;BME280;26652;50.280;19.026;2023-10-31T01:45:45;151853.78;;;16.48;75.04
40920;BME280;26652;50.280;19.026;2023-10-31T01:47:48;151894.63;;;16.64;74.87
40920;BME280;26652;50.280;19.026;2023-10-31T01:49:50;151910.72;;;16.71;74.48
40920;BME280;26652;50.280;19.026;2023-10-31T01:51:52;151882.25;;;16.59;74.18
40920;BME280;26652;50.280;19.026;2023-10-31T01:53:53;151889.69;;;16.62;72.93
40920;BME280;26652;50.280;19.026;2023-10-31T01:55:54;151914.44;;;16.73;73.45
40920;BME280;26652;50.280;19.026;2023-10-31T01:57:56;151947.88;;;16.86;73.90
40920;BME280;26652;50.280;19.026;2023-10-31T01:59:57;151959.00;;;16.91;73.92
40920;BME280;26652;50.280;19.026;2023-10-31T02:01:58;151941.69;;;16.84;73.78
40920;BME280;26652;50.280;19.026;2023-10-31T02:03:59;151971.41;;;16.96;72.33
40920;BME280;26652;50.280;19.026;2023-10-31T02:06:03;151955.28;;;16.89;70.82
40920;BME280;26652;50.280;19.026;2023-10-31T02:08:05;151982.53;;;17.00;68.79
40920;BME280;26652;50.280;19.026;2023-10-31T02:10:08;152011.03;;;17.12;67.76
40920;BME280;26652;50.280;19.026;2023-10-31T02:12:09;152029.59;;;17.20;67.39
40920;BME280;26652;50.280;19.026;2023-10-31T02:14:10;152074.19;;;17.38;67.59
40920;BME280;26652;50.280;19.026;2023-10-31T02:16:10;152106.38;;;17.51;67.04
40920;BME280;26652;50.280;19.026;2023-10-31T02:18:12;152128.69;;;17.60;65.62
40920;BME280;26652;50.280;19.026;2023-10-31T02:20:13;152162.13;;;17.74;64.63
40920;BME280;26652;50.280;19.026;2023-10-31T02:22:14;152159.66;;;17.73;65.14
40920;BME280;26652;50.280;19.026;2023-10-31T02:24:14;152174.53;;;17.79;64.61
40920;BME280;26652;50.280;19.026;2023-10-31T02:26:15;152217.88;;;17.97;64.34
40920;BME280;26652;50.280;19.026;2023-10-31T02:28:15;152221.59;;;17.98;63.39
40920;BME280;26652;50.280;19.026;2023-10-31T02:30:16;152247.63;;;18.09;63.13
40920;BME280;26652;50.280;19.026;2023-10-31T02:32:17;152255.06;;;18.12;62.45
40920;BME280;26652;50.280;19.026;2023-10-31T02:34:18;152286.03;;;18.25;63.08
40920;BME280;26652;50.280;19.026;2023-10-31T02:36:19;152299.66;;;18.30;61.77
40920;BME280;26652;50.280;19.026;2023-10-31T02:38:20;152309.59;;;18.35;61.61
40920;BME280;26652;50.280;19.026;2023-10-31T02:40:20;152330.66;;;18.43;61.09
40920;BME280;26652;50.280;19.026;2023-10-31T02:42:21;152340.56;;;18.47;61.25
40920;BME280;26652;50.280;19.026;2023-10-31T02:44:21;152340.56;;;18.47;61.02
40920;BME280;26652;50.280;19.026;2023-10-31T02:46:22;152349.25;;;18.51;61.36
40920;BME280;26652;50.280;19.026;2023-10-31T02:48:23;152370.31;;;18.59;60.48
40920;BME280;26652;50.280;19.026;2023-10-31T02:50:25;152357.91;;;18.54;60.31
40920;BME280;26652;50.280;19.026;2023-10-31T02:52:25;152371.56;;;18.60;60.58
40920;BME280;26652;50.280;19.026;2023-10-31T02:54:26;152387.72;;;18.67;60.77
40920;BME280;26652;50.280;19.026;2023-10-31T02:56:27;152387.72;;;18.67;60.58
40920;BME280;26652;50.280;19.026;2023-10-31T02:58:28;152400.09;;;18.72;59.51
40920;BME280;26652;50.280;19.026;2023-10-31T03:00:28;152391.44;;;18.68;61.10
40920;BME280;26652;50.280;19.026;2023-10-31T03:02:29;152400.09;;;18.72;59.11
40920;BME280;26652;50.280;19.026;2023-10-31T03:04:30;152387.72;;;18.67;61.33
40920;BME280;26652;50.280;19.026;2023-10-31T03:06:31;152392.69;;;18.69;60.00
40920;BME280;26652;50.280;19.026;2023-10-31T03:08:31;152409.97;;;18.76;60.15
40920;BME280;26652;50.280;19.026;2023-10-31T03:10:32;152397.63;;;18.71;60.04
40920;BME280;26652;50.280;19.026;2023-10-31T03:12:32;152401.31;;;18.72;60.01
40920;BME280;26652;50.280;19.026;2023-10-31T03:14:33;152411.22;;;18.76;60.54
40920;BME280;26652;50.280;19.026;2023-10-31T03:16:34;152414.94;;;18.78;60.79
40920;BME280;26652;50.280;19.026;2023-10-31T03:18:34;152413.69;;;18.77;60.77
40920;BME280;26652;50.280;19.026;2023-10-31T03:20:35;152392.69;;;18.69;61.25
40920;BME280;26652;50.280;19.026;2023-10-31T03:22:36;152369.06;;;18.59;60.70
40920;BME280;26652;50.280;19.026;2023-10-31T03:24:37;152367.84;;;18.58;61.07
40920;BME280;26652;50.280;19.026;2023-10-31T03:26:37;152367.84;;;18.58;60.99
40920;BME280;26652;50.280;19.026;2023-10-31T03:28:38;152362.88;;;18.56;61.25
40920;BME280;26652;50.280;19.026;2023-10-31T03:30:39;152377.78;;;18.63;60.74
40920;BME280;26652;50.280;19.026;2023-10-31T03:32:40;152376.56;;;18.62;60.93
40920;BME280;26652;50.280;19.026;2023-10-31T03:34:41;152365.34;;;18.57;60.76
40920;BME280;26652;50.280;19.026;2023-10-31T03:36:41;152375.31;;;18.61;60.44
40920;BME280;26652;50.280;19.026;2023-10-31T03:38:42;152388.97;;;18.67;60.06
40920;BME280;26652;50.280;19.026;2023-10-31T03:40:43;152366.59;;;18.58;60.58
40920;BME280;26652;50.280;19.026;2023-10-31T03:42:43;152375.31;;;18.61;59.96
40920;BME280;26652;50.280;19.026;2023-10-31T03:44:44;152379.03;;;18.63;59.68
40920;BME280;26652;50.280;19.026;2023-10-31T03:46:45;152412.47;;;18.77;60.28
40920;BME280;26652;50.280;19.026;2023-10-31T03:48:45;152406.25;;;18.74;59.02
40920;BME280;26652;50.280;19.026;2023-10-31T03:50:46;152400.09;;;18.72;59.87
40920;BME280;26652;50.280;19.026;2023-10-31T03:52:47;152392.69;;;18.69;60.08
40920;BME280;26652;50.280;19.026;2023-10-31T03:54:47;152405.03;;;18.74;59.16
40920;BME280;26652;50.280;19.026;2023-10-31T03:56:48;152428.56;;;18.83;58.52
40920;BME280;26652;50.280;19.026;2023-10-31T03:58:49;152437.25;;;18.87;58.54
40920;BME280;26652;50.280;19.026;2023-10-31T04:00:49;152453.38;;;18.93;58.27
40920;BME280;26652;50.280;19.026;2023-10-31T04:02:50;152471.97;;;19.01;58.32
40920;BME280;26652;50.280;19.026;2023-10-31T04:04:51;152479.41;;;19.04;58.41
40920;BME280;26652;50.280;19.026;2023-10-31T04:06:52;152485.59;;;19.07;58.13
40920;BME280;26652;50.280;19.026;2023-10-31T04:08:52;152507.91;;;19.16;58.22
40920;BME280;26652;50.280;19.026;2023-10-31T04:10:53;152521.56;;;19.21;57.66
40920;BME280;26652;50.280;19.026;2023-10-31T04:12:54;152500.47;;;19.13;57.59
40920;BME280;26652;50.280;19.026;2023-10-31T04:14:54;152504.19;;;19.14;58.37
40920;BME280;26652;50.280;19.026;2023-10-31T04:16:55;152496.75;;;19.11;58.36
40920;BME280;26652;50.280;19.026;2023-10-31T04:18:56;152491.81;;;19.09;58.18
40920;BME280;26652;50.280;19.026;2023-10-31T04:20:56;152520.31;;;19.21;57.72
40920;BME280;26652;50.280;19.026;2023-10-31T04:22:57;152524.03;;;19.22;57.07
40920;BME280;26652;50.280;19.026;2023-10-31T04:24:57;152509.16;;;19.16;56.68
40920;BME280;26652;50.280;19.026;2023-10-31T04:26:58;152541.41;;;19.30;56.87
40920;BME280;26652;50.280;19.026;2023-10-31T04:28:59;152538.91;;;19.28;56.93
40920;BME280;26652;50.280;19.026;2023-10-31T04:30:59;152535.19;;;19.27;56.61
40920;BME280;26652;50.280;19.026;2023-10-31T04:33:00;152540.16;;;19.29;56.67
40920;BME280;26652;50.280;19.026;2023-10-31T04:35:01;152541.41;;;19.30;56.77
40920;BME280;26652;50.280;19.026;2023-10-31T04:37:01;152547.59;;;19.32;55.93
40920;BME280;26652;50.280;19.026;2023-10-31T04:39:02;152566.22;;;19.40;56.13
40920;BME280;26652;50.280;19.026;2023-10-31T04:41:03;152574.88;;;19.43;56.12
40920;BME280;26652;50.280;19.026;2023-10-31T04:43:04;152577.38;;;19.44;55.63
40920;BME280;26652;50.280;19.026;2023-10-31T04:45:05;152592.25;;;19.50;54.98
40920;BME280;26652;50.280;19.026;2023-10-31T04:47:06;152594.78;;;19.51;54.59
40920;BME280;26652;50.280;19.026;2023-10-31T04:49:07;152610.91;;;19.58;54.16
40920;BME280;26652;50.280;19.026;2023-10-31T04:51:08;152643.16;;;19.71;54.28
40920;BME280;26652;50.280;19.026;2023-10-31T04:53:08;152662.94;;;19.79;53.61
40920;BME280;26652;50.280;19.026;2023-10-31T04:55:09;152669.16;;;19.82;53.74
40920;BME280;26652;50.280;19.026;2023-10-31T04:57:10;152658.00;;;19.77;53.05
40920;BME280;26652;50.280;19.026;2023-10-31T04:59:11;152665.44;;;19.80;53.15
40920;BME280;26652;50.280;19.026;2023-10-31T05:01:13;152691.47;;;19.91;53.08
40920;BME280;26652;50.280;19.026;2023-10-31T05:03:14;152671.63;;;19.83;53.14
40920;BME280;26652;50.280;19.026;2023-10-31T05:05:15;152666.66;;;19.81;53.14
40920;BME280;26652;50.280;19.026;2023-10-31T05:07:15;152684.03;;;19.88;52.58
40920;BME280;26652;50.280;19.026;2023-10-31T05:09:16;152697.69;;;19.93;52.65
40920;BME280;26652;50.280;19.026;2023-10-31T05:11:18;152692.72;;;19.91;52.51
40920;BME280;26652;50.280;19.026;2023-10-31T05:13:19;152681.56;;;19.87;52.68
40920;BME280;26652;50.280;19.026;2023-10-31T05:15:20;152681.56;;;19.87;52.80
40920;BME280;26652;50.280;19.026;2023-10-31T05:17:20;152692.72;;;19.91;52.08
40920;BME280;26652;50.280;19.026;2023-10-31T05:19:22;152684.03;;;19.88;52.19
40920;BME280;26652;50.280;19.026;2023-10-31T05:21:22;152687.75;;;19.89;51.69
40920;BME280;26652;50.280;19.026;2023-10-31T05:23:24;152698.94;;;19.94;51.32
40920;BME280;26652;50.280;19.026;2023-10-31T05:25:24;152716.28;;;20.01;50.79
40920;BME280;26652;50.280;19.026;2023-10-31T05:27:25;152712.56;;;20.00;51.88
40920;BME280;26652;50.280;19.026;2023-10-31T05:29:26;152682.78;;;19.87;51.26
40920;BME280;26652;50.280;19.026;2023-10-31T05:31:26;152708.84;;;19.98;50.54
40920;BME280;26652;50.280;19.026;2023-10-31T05:33:27;152690.25;;;19.90;50.94
40920;BME280;26652;50.280;19.026;2023-10-31T05:35:28;152700.16;;;19.95;50.89
40920;BME280;26652;50.280;19.026;2023-10-31T05:37:28;152698.94;;;19.94;51.39
40920;BME280;26652;50.280;19.026;2023-10-31T05:39:29;152701.41;;;19.95;50.51
40920;BME280;26652;50.280;19.026;2023-10-31T05:41:29;152705.13;;;19.97;50.60
40920;BME280;26652;50.280;19.026;2023-10-31T05:43:31;152706.38;;;19.97;50.18
40920;BME280;26652;50.280;19.026;2023-10-31T05:45:31;152700.16;;;19.95;50.68
40920;BME280;26652;50.280;19.026;2023-10-31T05:47:33;152715.06;;;20.01;50.49
40920;BME280;26652;50.280;19.026;2023-10-31T05:49:34;152729.94;;;20.07;50.63
40920;BME280;26652;50.280;19.026;2023-10-31T05:51:35;152708.84;;;19.98;50.34
40920;BME280;26652;50.280;19.026;2023-10-31T05:53:36;152720.00;;;20.03;50.51
40920;BME280;26652;50.280;19.026;2023-10-31T05:55:39;152716.28;;;20.01;50.63
40920;BME280;26652;50.280;19.026;2023-10-31T05:57:40;152720.00;;;20.03;50.47
40920;BME280;26652;50.280;19.026;2023-10-31T05:59:41;152726.22;;;20.05;50.58
40920;BME280;26652;50.280;19.026;2023-10-31T06:01:42;152724.97;;;20.05;51.00
40920;BME280;26652;50.280;19.026;2023-10-31T06:03:44;152707.59;;;19.98;50.96
40920;BME280;26652;50.280;19.026;2023-10-31T06:05:44;152696.44;;;19.93;50.72
40920;BME280;26652;50.280;19.026;2023-10-31T06:07:46;152697.69;;;19.93;50.65
40920;BME280;26652;50.280;19.026;2023-10-31T06:09:47;152705.13;;;19.97;50.49
40920;BME280;26652;50.280;19.026;2023-10-31T06:11:47;152703.88;;;19.96;50.93
40920;BME280;26652;50.280;19.026;2023-10-31T06:13:48;152700.16;;;19.95;50.88
40920;BME280;26652;50.280;19.026;2023-10-31T06:15:49;152702.66;;;19.96;51.32
40920;BME280;26652;50.280;19.026;2023-10-31T06:17:49;152675.34;;;19.84;51.35
40920;BME280;26652;50.280;19.026;2023-10-31T06:19:50;152706.38;;;19.97;51.31
40920;BME280;26652;50.280;19.026;2023-10-31T06:21:50;152684.03;;;19.88;51.70
40920;BME280;26652;50.280;19.026;2023-10-31T06:23:51;152666.66;;;19.81;52.05
40920;BME280;26652;50.280;19.026;2023-10-31T06:25:52;152659.22;;;19.78;52.05
40920;BME280;26652;50.280;19.026;2023-10-31T06:27:52;152659.22;;;19.78;52.05
40920;BME280;26652;50.280;19.026;2023-10-31T06:29:53;152654.31;;;19.76;52.04
40920;BME280;26652;50.280;19.026;2023-10-31T06:31:56;152654.31;;;19.76;52.35
40920;BME280;26652;50.280;19.026;2023-10-31T06:33:56;152635.72;;;19.68;52.18
40920;BME280;26652;50.280;19.026;2023-10-31T06:35:57;152643.16;;;19.71;52.75
40920;BME280;26652;50.280;19.026;2023-10-31T06:37:57;152645.63;;;19.72;52.58
40920;BME280;26652;50.280;19.026;2023-10-31T06:39:58;152629.50;;;19.66;53.10
40920;BME280;26652;50.280;19.026;2023-10-31T06:41:59;152615.88;;;19.60;53.02
40920;BME280;26652;50.280;19.026;2023-10-31T06:43:59;152607.19;;;19.56;53.43
40920;BME280;26652;50.280;19.026;2023-10-31T06:46:00;152618.34;;;19.61;54.12
40920;BME280;26652;50.280;19.026;2023-10-31T06:48:03;152598.50;;;19.53;53.91
40920;BME280;26652;50.280;19.026;2023-10-31T06:50:04;152602.22;;;19.54;53.76
40920;BME280;26652;50.280;19.026;2023-10-31T06:52:05;152605.94;;;19.56;54.28
40920;BME280;26652;50.280;19.026;2023-10-31T06:54:05;152562.50;;;19.38;54.35
40920;BME280;26652;50.280;19.026;2023-10-31T06:56:07;152574.88;;;19.43;54.12
40920;BME280;26652;50.280;19.026;2023-10-31T06:58:07;152551.31;;;19.34;54.80
40920;BME280;26652;50.280;19.026;2023-10-31T07:00:08;152522.81;;;19.22;54.66
40920;BME280;26652;50.280;19.026;2023-10-31T07:02:09;152507.91;;;19.16;54.83
40920;BME280;26652;50.280;19.026;2023-10-31T07:04:10;152516.59;;;19.19;54.68
40920;BME280;26652;50.280;19.026;2023-10-31T07:06:10;152511.66;;;19.17;55.02
40920;BME280;26652;50.280;19.026;2023-10-31T07:08:11;152485.59;;;19.07;55.22
40920;BME280;26652;50.280;19.026;2023-10-31T07:10:12;152475.69;;;19.03;55.40
40920;BME280;26652;50.280;19.026;2023-10-31T07:12:12;152470.72;;;19.01;55.42
40920;BME280;26652;50.280;19.026;2023-10-31T07:14:13;152454.59;;;18.94;56.07
40920;BME280;26652;50.280;19.026;2023-10-31T07:16:14;152470.72;;;19.01;56.01
40920;BME280;26652;50.280;19.026;2023-10-31T07:18:14;152464.53;;;18.98;55.86
40920;BME280;26652;50.280;19.026;2023-10-31T07:20:15;152465.75;;;18.99;56.26
40920;BME280;26652;50.280;19.026;2023-10-31T07:22:16;152471.97;;;19.01;56.12
40920;BME280;26652;50.280;19.026;2023-10-31T07:24:17;152455.84;;;18.94;56.53
40920;BME280;26652;50.280;19.026;2023-10-31T07:26:17;152448.41;;;18.91;56.77
40920;BME280;26652;50.280;19.026;2023-10-31T07:28:18;152433.53;;;18.85;56.76
40920;BME280;26652;50.280;19.026;2023-10-31T07:30:19;152413.69;;;18.77;57.38
40920;BME280;26652;50.280;19.026;2023-10-31T07:32:20;152403.78;;;18.73;57.25
40920;BME280;26652;50.280;19.026;2023-10-31T07:34:20;152390.19;;;18.68;57.71
40920;BME280;26652;50.280;19.026;2023-10-31T07:36:21;152403.78;;;18.73;58.09
40920;BME280;26652;50.280;19.026;2023-10-31T07:38:22;152370.31;;;18.59;57.86
40920;BME280;26652;50.280;19.026;2023-10-31T07:40:23;152398.88;;;18.71;58.21
40920;BME280;26652;50.280;19.026;2023-10-31T07:42:23;152374.06;;;18.61;58.15
40920;BME280;26652;50.280;19.026;2023-10-31T07:44:24;152386.47;;;18.66;58.26
40920;BME280;26652;50.280;19.026;2023-10-31T07:46:25;152374.06;;;18.61;58.50
40920;BME280;26652;50.280;19.026;2023-10-31T07:48:26;152355.44;;;18.53;58.56
40920;BME280;26652;50.280;19.026;2023-10-31T07:50:26;152362.88;;;18.56;58.86
40920;BME280;26652;50.280;19.026;2023-10-31T07:52:27;152349.25;;;18.51;58.97
40920;BME280;26652;50.280;19.026;2023-10-31T07:54:27;152334.38;;;18.45;58.92
40920;BME280;26652;50.280;19.026;2023-10-31T07:56:28;152333.13;;;18.44;59.09
40920;BME280;26652;50.280;19.026;2023-10-31T07:58:29;152361.63;;;18.56;59.05
40920;BME280;26652;50.280;19.026;2023-10-31T08:00:30;152351.72;;;18.52;59.41
40920;BME280;26652;50.280;19.026;2023-10-31T08:02:31;152338.09;;;18.46;59.38
40920;BME280;26652;50.280;19.026;2023-10-31T08:04:32;152345.53;;;18.49;59.48
40920;BME280;26652;50.280;19.026;2023-10-31T08:06:32;152336.84;;;18.46;59.51
40920;BME280;26652;50.280;19.026;2023-10-31T08:08:33;152336.84;;;18.46;59.71
40920;BME280;26652;50.280;19.026;2023-10-31T08:10:37;152312.06;;;18.36;60.21
40920;BME280;26652;50.280;19.026;2023-10-31T08:12:37;152321.97;;;18.40;59.72
40920;BME280;26652;50.280;19.026;2023-10-31T08:14:38;152336.84;;;18.46;59.87
40920;BME280;26652;50.280;19.026;2023-10-31T08:16:39;152298.44;;;18.30;59.94
40920;BME280;26652;50.280;19.026;2023-10-31T08:18:39;152312.06;;;18.36;60.27
40920;BME280;26652;50.280;19.026;2023-10-31T08:20:40;152287.28;;;18.25;60.46
40920;BME280;26652;50.280;19.026;2023-10-31T08:22:41;152272.41;;;18.19;60.33
40920;BME280;26652;50.280;19.026;2023-10-31T08:24:43;152282.31;;;18.23;60.03
40920;BME280;26652;50.280;19.026;2023-10-31T08:26:44;152300.91;;;18.31;60.78
40920;BME280;26652;50.280;19.026;2023-10-31T08:28:45;152312.06;;;18.36;61.09
40920;BME280;26652;50.280;19.026;2023-10-31T08:30:45;152299.66;;;18.30;60.65
40920;BME280;26652;50.280;19.026;2023-10-31T08:32:47;152291.00;;;18.27;60.30
40920;BME280;26652;50.280;19.026;2023-10-31T08:34:47;152284.78;;;18.24;61.05
40920;BME280;26652;50.280;19.026;2023-10-31T08:36:48;152235.22;;;18.04;60.66
40920;BME280;26652;50.280;19.026;2023-10-31T08:38:49;152226.56;;;18.01;61.21
40920;BME280;26652;50.280;19.026;2023-10-31T08:40:50;152225.31;;;18.00;61.19
40920;BME280;26652;50.280;19.026;2023-10-31T08:42:50;152260.00;;;18.14;60.70
40920;BME280;26652;50.280;19.026;2023-10-31T08:44:51;152236.47;;;18.05;60.42
40920;BME280;26652;50.280;19.026;2023-10-31T08:46:52;152238.94;;;18.06;60.44
40920;BME280;26652;50.280;19.026;2023-10-31T08:48:52;152272.41;;;18.19;60.61
40920;BME280;26652;50.280;19.026;2023-10-31T08:50:53;152257.53;;;18.13;60.52
40920;BME280;26652;50.280;19.026;2023-10-31T08:52:54;152236.47;;;18.05;60.68
40920;BME280;26652;50.280;19.026;2023-10-31T08:54:54;152220.34;;;17.98;61.33
40920;BME280;26652;50.280;19.026;2023-10-31T08:56:55;152212.94;;;17.95;61.65
40920;BME280;26652;50.280;19.026;2023-10-31T08:58:55;152183.19;;;17.83;62.22
40920;BME280;26652;50.280;19.026;2023-10-31T09:00:56;152143.59;;;17.67;63.43
40920;BME280;26652;50.280;19.026;2023-10-31T09:02:57;152177.00;;;17.80;63.96
40920;BME280;26652;50.280;19.026;2023-10-31T09:04:58;152142.34;;;17.66;63.81
40920;BME280;26652;50.280;19.026;2023-10-31T09:06:58;152143.59;;;17.67;64.11
40920;BME280;26652;50.280;19.026;2023-10-31T09:08:59;152160.88;;;17.74;64.14
40920;BME280;26652;50.280;19.026;2023-10-31T09:11:00;152158.41;;;17.73;64.31
40920;BME280;26652;50.280;19.026;2023-10-31T09:13:01;152133.63;;;17.62;65.08
40920;BME280;26652;50.280;19.026;2023-10-31T09:15:01;152102.66;;;17.50;65.49
40920;BME280;26652;50.280;19.026;2023-10-31T09:17:02;152075.41;;;17.39;66.34
40920;BME280;26652;50.280;19.026;2023-10-31T09:19:03;152075.41;;;17.39;66.73
40920;BME280;26652;50.280;19.026;2023-10-31T09:21:04;152050.66;;;17.28;67.96
40920;BME280;26652;50.280;19.026;2023-10-31T09:23:05;152023.41;;;17.17;68.19
40920;BME280;26652;50.280;19.026;2023-10-31T09:25:06;152056.84;;;17.31;68.99
40920;BME280;26652;50.280;19.026;2023-10-31T09:27:07;152022.16;;;17.17;70.27
40920;BME280;26652;50.280;19.026;2023-10-31T09:29:07;151986.25;;;17.02;71.40
40920;BME280;26652;50.280;19.026;2023-10-31T09:31:08;152002.34;;;17.09;72.08
40920;BME280;26652;50.280;19.026;2023-10-31T09:33:09;151975.13;;;16.97;72.06
40920;BME280;26652;50.280;19.026;2023-10-31T09:35:10;151986.25;;;17.02;72.34
40920;BME280;26652;50.280;19.026;2023-10-31T09:37:11;151961.50;;;16.92;73.00
40920;BME280;26652;50.280;19.026;2023-10-31T09:39:11;151928.06;;;16.78;73.99
40920;BME280;26652;50.280;19.026;2023-10-31T09:41:12;151923.09;;;16.76;74.76
40920;BME280;26652;50.280;19.026;2023-10-31T09:43:14;151887.22;;;16.61;76.09
40920;BME280;26652;50.280;19.026;2023-10-31T09:45:15;151892.16;;;16.63;76.50
40920;BME280;26652;50.280;19.026;2023-10-31T09:47:17;151884.72;;;16.60;76.68
40920;BME280;26652;50.280;19.026;2023-10-31T09:49:18;151916.91;;;16.74;77.20
40920;BME280;26652;50.280;19.026;2023-10-31T09:51:19;151915.69;;;16.73;76.67
40920;BME280;26652;50.280;19.026;2023-10-31T09:53:21;151925.59;;;16.77;76.56
40920;BME280;26652;50.280;19.026;2023-10-31T09:55:22;151972.63;;;16.96;76.75
40920;BME280;26652;50.280;19.026;2023-10-31T09:57:23;152013.50;;;17.13;75.88
40920;BME280;26652;50.280;19.026;2023-10-31T09:59:26;152019.69;;;17.16;75.17
40920;BME280;26652;50.280;19.026;2023-10-31T10:01:27;152051.88;;;17.29;74.01
40920;BME280;26652;50.280;19.026;2023-10-31T10:03:28;152054.38;;;17.30;74.31
40920;BME280;26652;50.280;19.026;2023-10-31T10:05:31;152097.72;;;17.48;73.49
40920;BME280;26652;50.280;19.026;2023-10-31T10:07:34;152056.84;;;17.31;73.40
40920;BME280;26652;50.280;19.026;2023-10-31T10:09:36;152069.22;;;17.36;73.11
40920;BME280;26652;50.280;19.026;2023-10-31T10:11:36;152096.47;;;17.47;73.18
40920;BME280;26652;50.280;19.026;2023-10-31T10:13:37;152069.22;;;17.36;73.17
40920;BME280;26652;50.280;19.026;2023-10-31T10:15:45;152068.00;;;17.36;73.29
40920;BME280;26652;50.280;19.026;2023-10-31T10:17:50;152071.69;;;17.37;72.28
40920;BME280;26652;50.280;19.026;2023-10-31T10:20:10;152077.91;;;17.40;72.41
40920;BME280;26652;50.280;19.026;2023-10-31T10:22:12;152074.19;;;17.38;72.24
40920;BME280;26652;50.280;19.026;2023-10-31T10:24:14;152100.19;;;17.49;72.62